sensor_id;sensor_type;location;lat;lon;timestamp;pressure;altitude;pressure_sealevel;temperature;humidity
78409;BME280;67697;50.750;-3.270;2024-01-15T00:00:52;100559.97;;;6.43;57.55
78409;BME280;67697;50.750;-3.270;2024-01-15T00:03:18;100555.39;;;5.22;59.77
78409;BME280;67697;50.750;-3.270;2024-01-15T00:05:44;100555.02;;;5.99;60.22
78409;BME280;67697;50.750;-3.270;2024-01-15T00:08:09;100549.72;;;6.00;58.48
78409;BME280;67697;50.750;-3.270;2024-01-15T00:10:36;100547.26;;;6.37;57.83
78409;BME280;67697;50.750;-3.270;2024-01-15T00:13:00;100546.89;;;5.89;55.58
78409;BME280;67697;50.750;-3.270;2024-01-15T00:15:25;100547.08;;;5.32;57.40
78409;BME280;67697;50.750;-3.270;2024-01-15T00:17:51;100552.42;;;4.63;60.59
78409;BME280;67697;50.750;-3.270;2024-01-15T00:20:17;100551.06;;;5.12;61.45
78409;BME280;67697;50.750;-3.270;2024-01-15T00:22:42;100544.72;;;5.47;60.34
78409;BME280;67697;50.750;-3.270;2024-01-15T00:25:08;100538.60;;;5.68;58.98
78409;BME280;67697;50.750;-3.270;2024-01-15T00:27:34;100542.55;;;5.61;59.55
78409;BME280;67697;50.750;-3.270;2024-01-15T00:29:59;100542.93;;;6.16;58.93
78409;BME280;67697;50.750;-3.270;2024-01-15T00:32:24;100544.06;;;5.26;60.42
78409;BME280;67697;50.750;-3.270;2024-01-15T00:34:50;100542.78;;;5.05;62.61
78409;BME280;67697;50.750;-3.270;2024-01-15T00:37:16;100534.95;;;5.15;62.95
78409;BME280;67697;50.750;-3.270;2024-01-15T00:39:41;100536.67;;;4.94;65.08
78409;BME280;67697;50.750;-3.270;2024-01-15T00:42:06;100534.32;;;5.50;63.87
78409;BME280;67697;50.750;-3.270;2024-01-15T00:44:33;100528.93;;;6.59;62.90
78409;BME280;67697;50.750;-3.270;2024-01-15T00:46:57;100525.40;;;6.38;62.03
78409;BME280;67697;50.750;-3.270;2024-01-15T00:49:22;100523.64;;;6.43;61.63
78409;BME280;67697;50.750;-3.270;2024-01-15T00:51:48;100525.73;;;6.64;62.40
78409;BME280;67697;50.750;-3.270;2024-01-15T00:54:13;100527.34;;;6.62;61.34
78409;BME280;67697;50.750;-3.270;2024-01-15T00:56:39;100531.10;;;5.80;60.93
78409;BME280;67697;50.750;-3.270;2024-01-15T00:59:04;100527.81;;;7.01;60.51
78409;BME280;67697;50.750;-3.270;2024-01-15T01:01:30;100527.72;;;7.19;58.31
78409;BME280;67697;50.750;-3.270;2024-01-15T01:03:55;100528.33;;;6.40;58.21
78409;BME280;67697;50.750;-3.270;2024-01-15T01:06:21;100527.51;;;6.86;56.29
78409;BME280;67697;50.750;-3.270;2024-01-15T01:08:46;100522.22;;;6.68;57.55
78409;BME280;67697;50.750;-3.270;2024-01-15T01:11:13;100521.68;;;6.72;57.42
78409;BME280;67697;50.750;-3.270;2024-01-15T01:13:37;100518.95;;;7.39;56.42
78409;BME280;67697;50.750;-3.270;2024-01-15T01:16:02;100516.95;;;7.21;55.98
78409;BME280;67697;50.750;-3.270;2024-01-15T01:18:27;100515.73;;;6.85;57.07
78409;BME280;67697;50.750;-3.270;2024-01-15T01:20:52;100511.58;;;7.64;56.91
78409;BME280;67697;50.750;-3.270;2024-01-15T01:23:18;100510.12;;;7.91;55.86
78409;BME280;67697;50.750;-3.270;2024-01-15T01:25:44;100510.83;;;7.69;56.16
78409;BME280;67697;50.750;-3.270;2024-01-15T01:28:10;100508.52;;;7.63;56.86
78409;BME280;67697;50.750;-3.270;2024-01-15T01:30:34;100507.77;;;7.80;55.71
78409;BME280;67697;50.750;-3.270;2024-01-15T01:33:00;100503.09;;;7.47;56.17
78409;BME280;67697;50.750;-3.270;2024-01-15T01:35:25;100502.40;;;7.66;56.25
78409;BME280;67697;50.750;-3.270;2024-01-15T01:37:51;100503.14;;;7.63;55.77
78409;BME280;67697;50.750;-3.270;2024-01-15T01:40:18;100507.83;;;7.59;55.64
78409;BME280;67697;50.750;-3.270;2024-01-15T01:42:42;100506.18;;;7.11;55.60
78409;BME280;67697;50.750;-3.270;2024-01-15T01:45:08;100511.24;;;6.41;58.19
78409;BME280;67697;50.750;-3.270;2024-01-15T01:47:33;100507.41;;;6.36;58.33
78409;BME280;67697;50.750;-3.270;2024-01-15T01:49:58;100513.30;;;6.56;56.82
78409;BME280;67697;50.750;-3.270;2024-01-15T01:52:23;100511.86;;;6.61;56.68
78409;BME280;67697;50.750;-3.270;2024-01-15T01:54:49;100512.97;;;6.80;56.13
78409;BME280;67697;50.750;-3.270;2024-01-15T01:57:15;100509.79;;;5.42;58.08
78409;BME280;67697;50.750;-3.270;2024-01-15T01:59:40;100513.67;;;1.56;69.49
78409;BME280;67697;50.750;-3.270;2024-01-15T02:02:06;100505.75;;;3.29;71.97
78409;BME280;67697;50.750;-3.270;2024-01-15T02:04:31;100496.25;;;2.26;76.21
78409;BME280;67697;50.750;-3.270;2024-01-15T02:06:56;100490.28;;;3.27;75.08
78409;BME280;67697;50.750;-3.270;2024-01-15T02:09:22;100478.43;;;5.82;65.77
78409;BME280;67697;50.750;-3.270;2024-01-15T02:11:47;100489.56;;;3.89;67.30
78409;BME280;67697;50.750;-3.270;2024-01-15T02:14:12;100496.65;;;6.26;65.60
78409;BME280;67697;50.750;-3.270;2024-01-15T02:16:37;100494.09;;;7.22;60.05
78409;BME280;67697;50.750;-3.270;2024-01-15T02:19:03;100495.20;;;6.33;62.33
78409;BME280;67697;50.750;-3.270;2024-01-15T02:21:29;100496.29;;;6.05;62.08
78409;BME280;67697;50.750;-3.270;2024-01-15T02:23:55;100501.84;;;5.37;64.19
78409;BME280;67697;50.750;-3.270;2024-01-15T02:26:20;100506.16;;;6.39;63.14
78409;BME280;67697;50.750;-3.270;2024-01-15T02:28:45;100507.11;;;6.16;62.75
78409;BME280;67697;50.750;-3.270;2024-01-15T02:31:10;100515.06;;;7.34;61.26
78409;BME280;67697;50.750;-3.270;2024-01-15T02:33:35;100517.45;;;7.45;60.45
78409;BME280;67697;50.750;-3.270;2024-01-15T02:36:01;100511.61;;;7.96;58.46
78409;BME280;67697;50.750;-3.270;2024-01-15T02:38:27;100508.52;;;7.27;58.39
78409;BME280;67697;50.750;-3.270;2024-01-15T02:40:52;100513.67;;;5.96;61.82
78409;BME280;67697;50.750;-3.270;2024-01-15T02:43:18;100512.74;;;5.79;63.37
78409;BME280;67697;50.750;-3.270;2024-01-15T02:45:43;100508.28;;;5.89;64.20
78409;BME280;67697;50.750;-3.270;2024-01-15T02:48:09;100508.39;;;5.52;66.13
78409;BME280;67697;50.750;-3.270;2024-01-15T02:50:35;100505.26;;;6.02;66.04
78409;BME280;67697;50.750;-3.270;2024-01-15T02:53:00;100500.03;;;6.59;63.34
78409;BME280;67697;50.750;-3.270;2024-01-15T02:55:26;100501.73;;;6.62;62.95
78409;BME280;67697;50.750;-3.270;2024-01-15T02:57:51;100502.96;;;7.17;62.33
78409;BME280;67697;50.750;-3.270;2024-01-15T03:00:17;100497.48;;;5.63;63.98
78409;BME280;67697;50.750;-3.270;2024-01-15T03:02:44;100492.44;;;6.19;64.59
78409;BME280;67697;50.750;-3.270;2024-01-15T03:05:09;100489.09;;;7.91;59.06
78409;BME280;67697;50.750;-3.270;2024-01-15T03:07:34;100489.40;;;8.16;56.91
78409;BME280;67697;50.750;-3.270;2024-01-15T03:10:00;100487.60;;;7.63;58.19
78409;BME280;67697;50.750;-3.270;2024-01-15T03:12:25;100485.34;;;7.72;57.70
78409;BME280;67697;50.750;-3.270;2024-01-15T03:14:51;100487.52;;;7.88;57.11
78409;BME280;67697;50.750;-3.270;2024-01-15T03:17:17;100492.43;;;8.30;56.03
78409;BME280;67697;50.750;-3.270;2024-01-15T03:19:42;100492.84;;;6.90;57.91
78409;BME280;67697;50.750;-3.270;2024-01-15T03:22:08;100490.55;;;6.27;61.31
78409;BME280;67697;50.750;-3.270;2024-01-15T03:24:34;100490.29;;;6.75;60.82
78409;BME280;67697;50.750;-3.270;2024-01-15T03:27:00;100494.46;;;5.67;65.17
78409;BME280;67697;50.750;-3.270;2024-01-15T03:29:26;100495.76;;;4.85;68.11
78409;BME280;67697;50.750;-3.270;2024-01-15T03:31:51;100491.92;;;5.41;69.05
78409;BME280;67697;50.750;-3.270;2024-01-15T03:34:17;100492.81;;;5.07;69.40
78409;BME280;67697;50.750;-3.270;2024-01-15T03:36:42;100484.39;;;5.46;68.64
78409;BME280;67697;50.750;-3.270;2024-01-15T03:39:08;100479.27;;;5.69;67.06
78409;BME280;67697;50.750;-3.270;2024-01-15T03:41:33;100472.75;;;6.60;64.60
78409;BME280;67697;50.750;-3.270;2024-01-15T03:43:59;100471.74;;;6.30;64.67
78409;BME280;67697;50.750;-3.270;2024-01-15T03:46:24;100463.68;;;7.33;62.51
78409;BME280;67697;50.750;-3.270;2024-01-15T03:48:50;100464.78;;;7.27;61.17
78409;BME280;67697;50.750;-3.270;2024-01-15T03:51:16;100468.01;;;8.12;60.32
78409;BME280;67697;50.750;-3.270;2024-01-15T03:53:41;100465.42;;;8.05;58.47
78409;BME280;67697;50.750;-3.270;2024-01-15T03:56:06;100467.29;;;7.50;58.93
78409;BME280;67697;50.750;-3.270;2024-01-15T03:58:32;100460.73;;;7.18;60.49
78409;BME280;67697;50.750;-3.270;2024-01-15T04:00:57;100461.86;;;7.25;60.45
78409;BME280;67697;50.750;-3.270;2024-01-15T04:03:23;100463.92;;;7.53;60.78
78409;BME280;67697;50.750;-3.270;2024-01-15T04:05:49;100460.25;;;7.75;60.08
78409;BME280;67697;50.750;-3.270;2024-01-15T04:08:15;100459.82;;;7.89;59.13
78409;BME280;67697;50.750;-3.270;2024-01-15T04:10:41;100455.56;;;8.54;57.60
78409;BME280;67697;50.750;-3.270;2024-01-15T04:13:06;100461.30;;;8.26;57.77
78409;BME280;67697;50.750;-3.270;2024-01-15T04:15:32;100463.56;;;7.80;58.27
78409;BME280;67697;50.750;-3.270;2024-01-15T04:17:58;100459.94;;;8.91;55.51
78409;BME280;67697;50.750;-3.270;2024-01-15T04:20:23;100461.47;;;8.80;55.01
78409;BME280;67697;50.750;-3.270;2024-01-15T04:22:49;100460.18;;;6.20;59.11
78409;BME280;67697;50.750;-3.270;2024-01-15T04:25:14;100456.22;;;8.15;55.62
78409;BME280;67697;50.750;-3.270;2024-01-15T04:27:39;100455.84;;;8.15;54.90
78409;BME280;67697;50.750;-3.270;2024-01-15T04:30:06;100449.14;;;8.58;54.63
78409;BME280;67697;50.750;-3.270;2024-01-15T04:32:31;100446.36;;;8.56;53.52
78409;BME280;67697;50.750;-3.270;2024-01-15T04:34:57;100453.91;;;7.78;55.30
78409;BME280;67697;50.750;-3.270;2024-01-15T04:37:22;100453.75;;;6.01;58.09
78409;BME280;67697;50.750;-3.270;2024-01-15T04:39:48;100447.87;;;6.88;57.96
78409;BME280;67697;50.750;-3.270;2024-01-15T04:42:13;100452.79;;;5.91;60.49
78409;BME280;67697;50.750;-3.270;2024-01-15T04:44:39;100444.71;;;7.26;59.54
78409;BME280;67697;50.750;-3.270;2024-01-15T04:47:04;100442.11;;;7.43;58.26
78409;BME280;67697;50.750;-3.270;2024-01-15T04:49:29;100429.34;;;6.93;58.16
78409;BME280;67697;50.750;-3.270;2024-01-15T04:51:55;100429.25;;;6.98;59.66
78409;BME280;67697;50.750;-3.270;2024-01-15T04:54:21;100434.36;;;7.65;57.81
78409;BME280;67697;50.750;-3.270;2024-01-15T04:56:47;100433.60;;;8.09;56.10
78409;BME280;67697;50.750;-3.270;2024-01-15T04:59:13;100437.69;;;6.48;58.75
78409;BME280;67697;50.750;-3.270;2024-01-15T05:01:39;100440.65;;;7.16;59.00
78409;BME280;67697;50.750;-3.270;2024-01-15T05:04:04;100435.40;;;8.11;55.63
78409;BME280;67697;50.750;-3.270;2024-01-15T05:06:30;100438.37;;;7.70;55.27
78409;BME280;67697;50.750;-3.270;2024-01-15T05:08:56;100442.59;;;7.85;55.10
78409;BME280;67697;50.750;-3.270;2024-01-15T05:11:22;100440.63;;;7.73;54.59
78409;BME280;67697;50.750;-3.270;2024-01-15T05:13:47;100440.65;;;6.90;56.60
78409;BME280;67697;50.750;-3.270;2024-01-15T05:16:12;100442.09;;;5.95;59.04
78409;BME280;67697;50.750;-3.270;2024-01-15T05:18:38;100443.39;;;7.04;57.26
78409;BME280;67697;50.750;-3.270;2024-01-15T05:21:03;100443.76;;;7.69;54.14
78409;BME280;67697;50.750;-3.270;2024-01-15T05:23:30;100445.09;;;7.76;54.51
78409;BME280;67697;50.750;-3.270;2024-01-15T05:25:54;100446.41;;;8.12;53.33
78409;BME280;67697;50.750;-3.270;2024-01-15T05:28:19;100441.95;;;6.92;56.52
78409;BME280;67697;50.750;-3.270;2024-01-15T05:30:45;100447.11;;;6.52;56.76
78409;BME280;67697;50.750;-3.270;2024-01-15T05:33:11;100450.19;;;7.19;55.67
78409;BME280;67697;50.750;-3.270;2024-01-15T05:35:37;100455.97;;;7.78;54.41
78409;BME280;67697;50.750;-3.270;2024-01-15T05:38:02;100451.14;;;6.96;54.31
78409;BME280;67697;50.750;-3.270;2024-01-15T05:40:27;100454.49;;;7.22;53.98
78409;BME280;67697;50.750;-3.270;2024-01-15T05:42:52;100452.12;;;6.22;55.80
78409;BME280;67697;50.750;-3.270;2024-01-15T05:45:18;100454.49;;;5.08;59.24
78409;BME280;67697;50.750;-3.270;2024-01-15T05:47:43;100456.88;;;6.03;57.82
78409;BME280;67697;50.750;-3.270;2024-01-15T05:50:10;100461.26;;;6.04;58.33
78409;BME280;67697;50.750;-3.270;2024-01-15T05:52:34;100466.81;;;3.18;67.33
78409;BME280;67697;50.750;-3.270;2024-01-15T05:55:00;100463.19;;;4.33;65.22
78409;BME280;67697;50.750;-3.270;2024-01-15T05:57:25;100458.12;;;5.17;64.74
78409;BME280;67697;50.750;-3.270;2024-01-15T05:59:51;100466.89;;;3.99;65.66
78409;BME280;67697;50.750;-3.270;2024-01-15T06:02:17;100475.92;;;3.88;70.43
78409;BME280;67697;50.750;-3.270;2024-01-15T06:04:42;100476.46;;;3.35;71.90
78409;BME280;67697;50.750;-3.270;2024-01-15T06:07:07;100471.23;;;4.30;70.52
78409;BME280;67697;50.750;-3.270;2024-01-15T06:09:32;100468.51;;;4.40;70.84
78409;BME280;67697;50.750;-3.270;2024-01-15T06:11:59;100473.22;;;3.77;69.78
78409;BME280;67697;50.750;-3.270;2024-01-15T06:14:24;100473.48;;;3.82;71.48
78409;BME280;67697;50.750;-3.270;2024-01-15T06:16:49;100476.55;;;3.20;72.23
78409;BME280;67697;50.750;-3.270;2024-01-15T06:19:15;100475.24;;;3.92;70.94
78409;BME280;67697;50.750;-3.270;2024-01-15T06:21:40;100470.30;;;4.14;69.35
78409;BME280;67697;50.750;-3.270;2024-01-15T06:24:06;100468.54;;;4.17;67.38
78409;BME280;67697;50.750;-3.270;2024-01-15T06:26:31;100472.51;;;4.57;64.88
78409;BME280;67697;50.750;-3.270;2024-01-15T06:28:57;100486.09;;;3.88;67.47
78409;BME280;67697;50.750;-3.270;2024-01-15T06:31:22;100481.89;;;4.41;66.53
78409;BME280;67697;50.750;-3.270;2024-01-15T06:33:48;100480.22;;;4.46;64.65
78409;BME280;67697;50.750;-3.270;2024-01-15T06:36:13;100471.14;;;5.33;63.64
78409;BME280;67697;50.750;-3.270;2024-01-15T06:38:38;100476.27;;;5.50;60.57
78409;BME280;67697;50.750;-3.270;2024-01-15T06:41:03;100485.83;;;5.24;60.19
78409;BME280;67697;50.750;-3.270;2024-01-15T06:43:29;100482.44;;;4.48;60.14
78409;BME280;67697;50.750;-3.270;2024-01-15T06:45:55;100472.47;;;5.63;59.01
78409;BME280;67697;50.750;-3.270;2024-01-15T06:48:20;100478.13;;;5.41;57.02
78409;BME280;67697;50.750;-3.270;2024-01-15T06:50:46;100492.45;;;4.26;61.08
78409;BME280;67697;50.750;-3.270;2024-01-15T06:53:11;100486.81;;;4.45;62.52
78409;BME280;67697;50.750;-3.270;2024-01-15T06:55:37;100483.41;;;3.47;64.07
78409;BME280;67697;50.750;-3.270;2024-01-15T06:58:02;100476.96;;;4.03;64.33
78409;BME280;67697;50.750;-3.270;2024-01-15T07:00:27;100472.45;;;3.87;63.09
78409;BME280;67697;50.750;-3.270;2024-01-15T07:02:53;100476.32;;;3.57;65.32
78409;BME280;67697;50.750;-3.270;2024-01-15T07:05:20;100478.76;;;3.27;67.08
78409;BME280;67697;50.750;-3.270;2024-01-15T07:07:44;100484.33;;;3.62;67.38
78409;BME280;67697;50.750;-3.270;2024-01-15T07:10:09;100478.74;;;4.09;64.83
78409;BME280;67697;50.750;-3.270;2024-01-15T07:12:34;100476.85;;;2.65;66.59
78409;BME280;67697;50.750;-3.270;2024-01-15T07:14:59;100480.30;;;3.81;65.22
78409;BME280;67697;50.750;-3.270;2024-01-15T07:17:25;100478.56;;;4.02;63.50
78409;BME280;67697;50.750;-3.270;2024-01-15T07:19:50;100487.75;;;3.63;62.87
78409;BME280;67697;50.750;-3.270;2024-01-15T07:22:16;100491.04;;;3.86;63.03
78409;BME280;67697;50.750;-3.270;2024-01-15T07:24:41;100487.18;;;5.21;60.41
78409;BME280;67697;50.750;-3.270;2024-01-15T07:27:06;100485.55;;;5.55;59.18
78409;BME280;67697;50.750;-3.270;2024-01-15T07:29:31;100485.52;;;5.07;58.72
78409;BME280;67697;50.750;-3.270;2024-01-15T07:31:57;100481.11;;;5.56;57.29
78409;BME280;67697;50.750;-3.270;2024-01-15T07:34:22;100481.08;;;4.62;58.96
78409;BME280;67697;50.750;-3.270;2024-01-15T07:36:48;100484.25;;;5.59;55.30
78409;BME280;67697;50.750;-3.270;2024-01-15T07:39:13;100498.91;;;5.17;56.09
78409;BME280;67697;50.750;-3.270;2024-01-15T07:41:39;100500.42;;;5.11;56.00
78409;BME280;67697;50.750;-3.270;2024-01-15T07:44:04;100497.32;;;4.54;56.89
78409;BME280;67697;50.750;-3.270;2024-01-15T07:46:30;100501.11;;;3.83;57.04
78409;BME280;67697;50.750;-3.270;2024-01-15T07:48:55;100507.91;;;4.40;58.64
78409;BME280;67697;50.750;-3.270;2024-01-15T07:51:21;100508.01;;;4.43;57.37
78409;BME280;67697;50.750;-3.270;2024-01-15T07:53:46;100511.35;;;5.51;56.24
78409;BME280;67697;50.750;-3.270;2024-01-15T07:56:12;100523.63;;;3.68;58.07
78409;BME280;67697;50.750;-3.270;2024-01-15T07:58:37;100523.85;;;2.81;60.77
78409;BME280;67697;50.750;-3.270;2024-01-15T08:01:03;100523.79;;;3.71;60.83
78409;BME280;67697;50.750;-3.270;2024-01-15T08:03:28;100516.50;;;4.21;59.39
78409;BME280;67697;50.750;-3.270;2024-01-15T08:05:53;100517.97;;;4.99;58.28
78409;BME280;67697;50.750;-3.270;2024-01-15T08:08:19;100512.09;;;5.34;56.26
78409;BME280;67697;50.750;-3.270;2024-01-15T08:10:44;100509.61;;;5.46;55.49
78409;BME280;67697;50.750;-3.270;2024-01-15T08:13:09;100513.80;;;5.45;53.96
78409;BME280;67697;50.750;-3.270;2024-01-15T08:15:37;100519.08;;;5.49;53.74
78409;BME280;67697;50.750;-3.270;2024-01-15T08:18:00;100521.01;;;5.14;54.29
78409;BME280;67697;50.750;-3.270;2024-01-15T08:20:28;100529.41;;;4.62;57.66
78409;BME280;67697;50.750;-3.270;2024-01-15T08:22:51;100530.60;;;4.01;57.03
78409;BME280;67697;50.750;-3.270;2024-01-15T08:25:17;100532.98;;;3.22;63.21
78409;BME280;67697;50.750;-3.270;2024-01-15T08:27:42;100532.03;;;2.25;67.09
78409;BME280;67697;50.750;-3.270;2024-01-15T08:30:09;100537.93;;;1.75;70.65
78409;BME280;67697;50.750;-3.270;2024-01-15T08:32:34;100541.46;;;1.58;73.15
78409;BME280;67697;50.750;-3.270;2024-01-15T08:34:59;100536.78;;;3.35;68.73
78409;BME280;67697;50.750;-3.270;2024-01-15T08:37:24;100545.92;;;2.27;69.02
78409;BME280;67697;50.750;-3.270;2024-01-15T08:39:50;100559.85;;;0.77;72.82
78409;BME280;67697;50.750;-3.270;2024-01-15T08:42:15;100557.24;;;2.75;71.21
78409;BME280;67697;50.750;-3.270;2024-01-15T08:44:41;100552.93;;;3.37;66.85
78409;BME280;67697;50.750;-3.270;2024-01-15T08:47:06;100553.29;;;3.70;64.26
78409;BME280;67697;50.750;-3.270;2024-01-15T08:49:32;100559.66;;;3.98;63.28
78409;BME280;67697;50.750;-3.270;2024-01-15T08:51:57;100560.39;;;4.39;62.37
78409;BME280;67697;50.750;-3.270;2024-01-15T08:54:23;100563.80;;;3.89;60.57
78409;BME280;67697;50.750;-3.270;2024-01-15T08:56:49;100566.60;;;3.98;61.40
78409;BME280;67697;50.750;-3.270;2024-01-15T08:59:14;100566.37;;;4.62;58.25
78409;BME280;67697;50.750;-3.270;2024-01-15T09:01:39;100569.94;;;5.12;57.19
78409;BME280;67697;50.750;-3.270;2024-01-15T09:04:04;100569.99;;;4.56;57.42
78409;BME280;67697;50.750;-3.270;2024-01-15T09:06:30;100568.10;;;5.40;55.30
78409;BME280;67697;50.750;-3.270;2024-01-15T09:08:55;100574.03;;;5.33;55.38
78409;BME280;67697;50.750;-3.270;2024-01-15T09:11:21;100574.58;;;5.47;54.65
78409;BME280;67697;50.750;-3.270;2024-01-15T09:13:47;100579.07;;;5.52;54.61
78409;BME280;67697;50.750;-3.270;2024-01-15T09:16:13;100589.38;;;3.54;58.46
78409;BME280;67697;50.750;-3.270;2024-01-15T09:18:38;100584.30;;;5.90;54.92
78409;BME280;67697;50.750;-3.270;2024-01-15T09:21:04;100579.73;;;5.45;55.17
78409;BME280;67697;50.750;-3.270;2024-01-15T09:23:30;100581.84;;;3.77;59.02
78409;BME280;67697;50.750;-3.270;2024-01-15T09:25:54;100584.37;;;3.66;60.69
78409;BME280;67697;50.750;-3.270;2024-01-15T09:28:20;100582.53;;;3.63;60.63
78409;BME280;67697;50.750;-3.270;2024-01-15T09:30:46;100585.04;;;3.32;62.26
78409;BME280;67697;50.750;-3.270;2024-01-15T09:33:11;100584.28;;;2.55;66.88
78409;BME280;67697;50.750;-3.270;2024-01-15T09:35:37;100586.72;;;2.34;67.00
78409;BME280;67697;50.750;-3.270;2024-01-15T09:38:03;100591.82;;;3.70;65.00
78409;BME280;67697;50.750;-3.270;2024-01-15T09:40:31;100592.39;;;5.23;60.60
78409;BME280;67697;50.750;-3.270;2024-01-15T09:42:54;100602.54;;;4.60;61.90
78409;BME280;67697;50.750;-3.270;2024-01-15T09:45:20;100600.18;;;5.22;60.54
78409;BME280;67697;50.750;-3.270;2024-01-15T09:47:45;100599.68;;;5.80;57.47
78409;BME280;67697;50.750;-3.270;2024-01-15T09:50:11;100597.77;;;5.52;55.26
78409;BME280;67697;50.750;-3.270;2024-01-15T09:52:36;100595.00;;;5.85;54.87
78409;BME280;67697;50.750;-3.270;2024-01-15T09:55:02;100596.55;;;6.07;53.80
78409;BME280;67697;50.750;-3.270;2024-01-15T09:57:26;100603.32;;;4.36;55.02
78409;BME280;67697;50.750;-3.270;2024-01-15T09:59:52;100603.73;;;5.73;55.32
78409;BME280;67697;50.750;-3.270;2024-01-15T10:02:17;100604.15;;;5.39;56.67
78409;BME280;67697;50.750;-3.270;2024-01-15T10:04:43;100617.79;;;2.82;62.71
78409;BME280;67697;50.750;-3.270;2024-01-15T10:07:08;100616.35;;;5.57;56.82
78409;BME280;67697;50.750;-3.270;2024-01-15T10:09:33;100619.22;;;5.49;57.27
78409;BME280;67697;50.750;-3.270;2024-01-15T10:11:59;100623.46;;;5.48;56.49
78409;BME280;67697;50.750;-3.270;2024-01-15T10:14:24;100624.06;;;5.45;57.51
78409;BME280;67697;50.750;-3.270;2024-01-15T10:16:50;100625.62;;;5.57;60.51
78409;BME280;67697;50.750;-3.270;2024-01-15T10:19:16;100623.18;;;6.96;56.10
78409;BME280;67697;50.750;-3.270;2024-01-15T10:21:41;100624.52;;;6.32;54.99
78409;BME280;67697;50.750;-3.270;2024-01-15T10:24:07;100635.68;;;4.48;57.47
78409;BME280;67697;50.750;-3.270;2024-01-15T10:26:33;100644.50;;;5.01;59.46
78409;BME280;67697;50.750;-3.270;2024-01-15T10:28:59;100643.13;;;5.27;56.17
78409;BME280;67697;50.750;-3.270;2024-01-15T10:31:25;100643.09;;;7.16;52.89
78409;BME280;67697;50.750;-3.270;2024-01-15T10:33:50;100640.54;;;7.31;51.94
78409;BME280;67697;50.750;-3.270;2024-01-15T10:36:17;100643.85;;;7.62;50.81
78409;BME280;67697;50.750;-3.270;2024-01-15T10:38:43;100646.76;;;7.44;50.86
78409;BME280;67697;50.750;-3.270;2024-01-15T10:41:08;100649.59;;;7.44;49.46
78409;BME280;67697;50.750;-3.270;2024-01-15T10:43:33;100657.30;;;6.99;51.64
78409;BME280;67697;50.750;-3.270;2024-01-15T10:46:00;100657.43;;;7.03;50.91
78409;BME280;67697;50.750;-3.270;2024-01-15T10:48:26;100656.65;;;7.37;51.17
78409;BME280;67697;50.750;-3.270;2024-01-15T10:50:51;100652.61;;;7.27;50.63
78409;BME280;67697;50.750;-3.270;2024-01-15T10:53:17;100655.68;;;6.48;53.70
78409;BME280;67697;50.750;-3.270;2024-01-15T10:55:43;100652.89;;;7.56;51.79
78409;BME280;67697;50.750;-3.270;2024-01-15T10:58:09;100655.75;;;6.31;52.95
78409;BME280;67697;50.750;-3.270;2024-01-15T11:00:35;100660.68;;;6.09;53.23
78409;BME280;67697;50.750;-3.270;2024-01-15T11:03:01;100658.77;;;5.40;57.37
78409;BME280;67697;50.750;-3.270;2024-01-15T11:05:25;100656.90;;;5.72;58.36
78409;BME280;67697;50.750;-3.270;2024-01-15T11:07:55;100658.43;;;5.10;58.97
78409;BME280;67697;50.750;-3.270;2024-01-15T11:12:43;100652.45;;;5.62;57.78
78409;BME280;67697;50.750;-3.270;2024-01-15T11:15:09;100650.03;;;6.46;56.79
78409;BME280;67697;50.750;-3.270;2024-01-15T11:20:00;100651.58;;;5.48;60.21
78409;BME280;67697;50.750;-3.270;2024-01-15T11:24:52;100653.77;;;5.10;61.16
78409;BME280;67697;50.750;-3.270;2024-01-15T11:29:44;100658.98;;;3.26;66.69
78409;BME280;67697;50.750;-3.270;2024-01-15T11:32:10;100656.10;;;5.39;63.29
78409;BME280;67697;50.750;-3.270;2024-01-15T11:34:50;100652.94;;;5.32;61.63
78409;BME280;67697;50.750;-3.270;2024-01-15T11:37:01;100646.03;;;5.26;61.29
78409;BME280;67697;50.750;-3.270;2024-01-15T11:39:39;100653.75;;;4.36;61.84
78409;BME280;67697;50.750;-3.270;2024-01-15T11:41:54;100652.46;;;4.41;62.89
78409;BME280;67697;50.750;-3.270;2024-01-15T11:44:19;100656.53;;;3.44;64.10
78409;BME280;67697;50.750;-3.270;2024-01-15T11:46:53;100651.69;;;3.99;63.84
78409;BME280;67697;50.750;-3.270;2024-01-15T11:49:15;100646.27;;;4.86;64.10
78409;BME280;67697;50.750;-3.270;2024-01-15T11:51:36;100647.54;;;4.33;62.25
78409;BME280;67697;50.750;-3.270;2024-01-15T11:54:04;100650.10;;;3.80;60.40
78409;BME280;67697;50.750;-3.270;2024-01-15T11:56:27;100650.52;;;4.17;59.12
78409;BME280;67697;50.750;-3.270;2024-01-15T11:58:53;100656.18;;;4.07;57.45
78409;BME280;67697;50.750;-3.270;2024-01-15T12:01:19;100652.08;;;3.12;56.51
78409;BME280;67697;50.750;-3.270;2024-01-15T12:03:47;100654.65;;;2.54;57.16
78409;BME280;67697;50.750;-3.270;2024-01-15T12:06:11;100652.53;;;3.10;57.17
78409;BME280;67697;50.750;-3.270;2024-01-15T12:08:36;100658.73;;;2.36;59.40
78409;BME280;67697;50.750;-3.270;2024-01-15T12:11:07;100665.27;;;2.47;58.86
78409;BME280;67697;50.750;-3.270;2024-01-15T12:13:28;100667.60;;;2.62;59.51
78409;BME280;67697;50.750;-3.270;2024-01-15T12:15:54;100669.76;;;3.09;57.33
78409;BME280;67697;50.750;-3.270;2024-01-15T12:18:20;100671.32;;;2.70;56.63
78409;BME280;67697;50.750;-3.270;2024-01-15T12:20:46;100668.25;;;2.91;57.18
78409;BME280;67697;50.750;-3.270;2024-01-15T12:23:12;100659.74;;;3.95;56.42
78409;BME280;67697;50.750;-3.270;2024-01-15T12:25:37;100658.06;;;3.70;56.64
78409;BME280;67697;50.750;-3.270;2024-01-15T12:28:04;100662.26;;;3.51;55.44
78409;BME280;67697;50.750;-3.270;2024-01-15T12:30:30;100664.86;;;3.87;56.63
78409;BME280;67697;50.750;-3.270;2024-01-15T12:32:55;100664.79;;;3.60;56.37
78409;BME280;67697;50.750;-3.270;2024-01-15T12:35:20;100664.27;;;4.12;54.43
78409;BME280;67697;50.750;-3.270;2024-01-15T12:37:47;100666.28;;;3.51;54.39
78409;BME280;67697;50.750;-3.270;2024-01-15T12:40:12;100672.11;;;3.86;54.95
78409;BME280;67697;50.750;-3.270;2024-01-15T12:42:39;100666.63;;;5.34;51.23
78409;BME280;67697;50.750;-3.270;2024-01-15T12:45:06;100668.11;;;4.24;52.40
78409;BME280;67697;50.750;-3.270;2024-01-15T12:47:30;100664.93;;;3.64;52.16
78409;BME280;67697;50.750;-3.270;2024-01-15T12:49:55;100663.74;;;2.98;54.68